createdAt,value
2023-08-08T00:02:46.848Z,1.23
2023-08-08T00:05:49.508Z,1.13
2023-08-08T00:08:52.092Z,1.35
2023-08-08T00:11:54.767Z,1.20
2023-08-08T00:14:57.283Z,1.25
2023-08-08T00:17:59.780Z,1.35
2023-08-08T00:21:02.331Z,1.30
2023-08-08T00:24:05.049Z,1.40
2023-08-08T00:27:07.621Z,1.40
2023-08-08T00:30:11.722Z,1.30
2023-08-08T00:33:14.435Z,1.17
2023-08-08T00:36:17.227Z,1.10
2023-08-08T00:39:19.985Z,1.17
2023-08-08T00:42:22.536Z,1.30
2023-08-08T00:45:25.282Z,1.10
2023-08-08T00:48:27.804Z,1.23
2023-08-08T00:51:30.612Z,1.45
2023-08-08T00:54:33.163Z,1.23
2023-08-08T00:57:39.295Z,1.38
2023-08-08T01:00:43.151Z,1.38
2023-08-08T01:03:46.377Z,1.33
2023-08-08T01:07:36.869Z,1.40
2023-08-08T01:10:43.610Z,1.50
2023-08-08T01:13:47.989Z,1.50
2023-08-08T01:16:53.323Z,1.33
2023-08-08T01:19:56.291Z,1.50
2023-08-08T01:22:58.920Z,1.50
2023-08-08T01:26:03.826Z,1.33
2023-08-08T01:29:06.424Z,1.70
2023-08-08T01:32:10.188Z,1.40
2023-08-08T01:35:12.933Z,1.50
2023-08-08T01:38:21.696Z,1.42
2023-08-08T01:41:25.097Z,1.45
2023-08-08T01:44:30.165Z,1.65
2023-08-08T01:47:32.852Z,1.60
2023-08-08T01:50:35.690Z,1.80
2023-08-08T01:53:38.186Z,1.52
2023-08-08T01:56:40.790Z,1.40
2023-08-08T01:59:44.254Z,1.70
2023-08-08T02:02:46.797Z,2.00
2023-08-08T02:05:49.376Z,1.65
2023-08-08T02:08:52.032Z,1.50
2023-08-08T02:11:54.590Z,1.50
2023-08-08T02:14:58.570Z,1.80
2023-08-08T02:18:02.128Z,1.65
2023-08-08T02:21:04.811Z,1.90
2023-08-08T02:24:07.586Z,1.60
2023-08-08T02:27:10.252Z,1.70
2023-08-08T02:30:13.757Z,1.70
2023-08-08T02:33:16.334Z,1.60
2023-08-08T02:36:20.154Z,1.50
2023-08-08T02:39:22.746Z,1.75
2023-08-08T02:42:25.335Z,1.95
2023-08-08T02:45:29.218Z,1.80
2023-08-08T02:48:32.555Z,1.60
2023-08-08T02:51:35.221Z,1.95
2023-08-08T02:54:37.947Z,1.50
2023-08-08T02:57:41.103Z,1.67
2023-08-08T03:00:43.741Z,1.73
2023-08-08T03:03:50.701Z,1.50
2023-08-08T03:06:55.406Z,1.75
2023-08-08T03:09:58.213Z,1.70
2023-08-08T03:13:00.769Z,1.60
2023-08-08T03:16:04.599Z,1.90
2023-08-08T03:19:07.940Z,1.75
2023-08-08T03:22:10.592Z,2.22
2023-08-08T03:25:14.385Z,1.75
2023-08-08T03:28:17.036Z,1.80
2023-08-08T03:31:19.885Z,1.90
2023-08-08T03:34:23.243Z,1.67
2023-08-08T03:37:26.175Z,1.88
2023-08-08T03:40:29.683Z,1.50
2023-08-08T03:43:32.526Z,1.50
2023-08-08T03:46:36.052Z,1.73
2023-08-08T03:49:38.868Z,1.65
2023-08-08T03:52:41.535Z,1.73
2023-08-08T03:55:47.620Z,1.80
2023-08-08T03:58:51.653Z,1.70
2023-08-08T04:01:54.385Z,1.75
2023-08-08T04:04:58.924Z,1.98
2023-08-08T04:08:01.569Z,1.90
2023-08-08T04:11:04.132Z,2.00
2023-08-08T04:14:06.715Z,1.88
2023-08-08T04:17:09.344Z,1.80
2023-08-08T04:20:12.755Z,1.98
2023-08-08T04:23:15.360Z,1.85
2023-08-08T04:26:17.839Z,1.92
2023-08-08T04:29:20.337Z,2.00
2023-08-08T04:32:22.969Z,2.20
2023-08-08T04:35:25.548Z,1.88
2023-08-08T04:38:28.146Z,2.25
2023-08-08T04:41:30.841Z,2.30
2023-08-08T04:44:33.432Z,1.95
2023-08-08T04:47:35.965Z,2.28
2023-08-08T04:50:38.712Z,2.00
2023-08-08T04:53:41.324Z,2.65
2023-08-08T04:56:44.040Z,2.00
2023-08-08T04:59:46.735Z,1.95
2023-08-08T05:02:49.405Z,2.10
2023-08-08T05:05:52.013Z,2.10
2023-08-08T05:08:54.708Z,2.15
2023-08-08T05:11:57.184Z,2.25
2023-08-08T05:14:59.885Z,2.40
2023-08-08T05:18:02.489Z,2.10
2023-08-08T05:21:05.080Z,2.20
2023-08-08T05:24:07.625Z,2.15
2023-08-08T05:27:10.765Z,2.20
2023-08-08T05:30:13.684Z,2.25
2023-08-08T05:33:16.281Z,2.05
2023-08-08T05:36:18.877Z,2.20
2023-08-08T05:39:21.592Z,2.50
2023-08-08T05:42:24.254Z,2.10
2023-08-08T05:45:26.898Z,3.08
2023-08-08T05:48:29.401Z,3.03
2023-08-08T05:51:32.107Z,2.28
2023-08-08T05:54:35.456Z,2.45
2023-08-08T05:57:38.992Z,2.78
2023-08-08T06:00:41.810Z,2.88
2023-08-08T06:03:44.493Z,2.20
2023-08-08T06:06:50.039Z,2.58
2023-08-08T06:09:53.018Z,2.00
2023-08-08T06:12:55.682Z,2.35
2023-08-08T06:15:58.351Z,2.30
2023-08-08T06:19:01.041Z,2.58
2023-08-08T06:22:04.607Z,2.30
2023-08-08T06:25:07.962Z,2.03
2023-08-08T06:28:12.730Z,2.28
2023-08-08T06:31:15.841Z,2.40
2023-08-08T06:34:18.459Z,2.00
2023-08-08T06:37:20.963Z,2.45
2023-08-08T06:40:24.877Z,2.50
2023-08-08T06:43:27.809Z,2.35
2023-08-08T06:46:30.369Z,2.25
2023-08-08T06:49:32.867Z,2.38
2023-08-08T06:52:35.403Z,2.40
2023-08-08T06:55:38.040Z,2.20
2023-08-08T06:58:40.606Z,2.15
2023-08-08T07:01:43.284Z,2.70
2023-08-08T07:04:45.920Z,2.17
2023-08-08T07:07:48.398Z,2.35
2023-08-08T07:10:50.950Z,2.30
2023-08-08T07:13:53.520Z,2.17
2023-08-08T07:16:57.031Z,2.38
2023-08-08T07:19:59.758Z,2.25
2023-08-08T07:23:02.656Z,2.25
2023-08-08T07:26:05.144Z,1.92
2023-08-08T07:29:07.925Z,2.08
2023-08-08T07:32:10.583Z,2.22
2023-08-08T07:35:13.491Z,2.05
2023-08-08T07:38:16.890Z,2.47
2023-08-08T07:41:19.557Z,2.58
2023-08-08T07:44:22.472Z,2.40
2023-08-08T07:47:25.034Z,2.20
2023-08-08T07:50:27.610Z,2.30
2023-08-08T07:53:30.153Z,2.47
2023-08-08T07:56:32.657Z,2.47
2023-08-08T07:59:35.217Z,2.60
2023-08-08T08:02:38.570Z,2.60
2023-08-08T08:05:41.146Z,3.03
2023-08-08T08:08:43.722Z,2.30
2023-08-08T08:11:46.299Z,3.22
2023-08-08T08:14:48.812Z,1.90
2023-08-08T08:17:51.384Z,2.33
2023-08-08T08:20:53.947Z,2.50
2023-08-08T08:23:56.521Z,2.20
2023-08-08T08:26:59.069Z,2.20
2023-08-08T08:30:01.606Z,2.40
2023-08-08T08:33:05.556Z,2.40
2023-08-08T08:36:08.120Z,2.15
2023-08-08T08:39:10.735Z,2.30
2023-08-08T08:42:16.558Z,2.10
2023-08-08T08:45:21.890Z,2.08
2023-08-08T08:48:24.649Z,2.30
2023-08-08T08:51:27.363Z,2.17
2023-08-08T08:54:31.369Z,2.00
2023-08-08T08:57:34.441Z,2.47
2023-08-08T09:00:37.820Z,2.00
2023-08-08T09:03:41.265Z,2.13
2023-08-08T09:06:45.181Z,2.13
2023-08-08T09:09:47.712Z,2.00
2023-08-08T09:12:50.536Z,2.10
2023-08-08T09:15:53.560Z,2.28
2023-08-08T09:18:56.098Z,2.40
2023-08-08T09:21:58.930Z,2.25
2023-08-08T09:25:03.382Z,2.75
2023-08-08T09:28:06.400Z,2.30
2023-08-08T09:31:09.022Z,2.33
2023-08-08T09:34:11.565Z,2.75
2023-08-08T09:37:15.419Z,3.88
2023-08-08T09:40:18.668Z,4.88
2023-08-08T09:43:21.287Z,3.00
2023-08-08T09:46:24.016Z,2.30
2023-08-08T09:49:27.279Z,2.38
2023-08-08T09:52:30.943Z,2.00
2023-08-08T09:55:34.542Z,2.05
2023-08-08T09:58:37.351Z,2.10
2023-08-08T10:01:43.621Z,2.22
2023-08-08T10:04:47.472Z,2.05
2023-08-08T10:07:50.145Z,2.33
2023-08-08T10:10:53.207Z,2.30
2023-08-08T10:13:56.102Z,2.50
2023-08-08T10:16:58.757Z,1.98
2023-08-08T10:20:10.249Z,1.85
2023-08-08T10:23:12.828Z,2.05
2023-08-08T10:26:21.950Z,2.50
2023-08-08T10:29:26.589Z,2.20
2023-08-08T10:32:29.292Z,2.30
2023-08-08T10:35:38.333Z,2.15
2023-08-08T10:38:53.719Z,2.30
2023-08-08T10:41:58.001Z,2.70
2023-08-08T10:45:02.859Z,2.10
2023-08-08T10:48:10.176Z,2.15
2023-08-08T10:51:15.624Z,2.10
2023-08-08T10:54:21.783Z,2.08
2023-08-08T10:57:28.650Z,2.13
2023-08-08T11:00:34.255Z,2.42
2023-08-08T11:03:38.679Z,2.28
2023-08-08T11:06:42.067Z,3.30
2023-08-08T11:09:44.974Z,3.42
2023-08-08T11:12:56.198Z,3.00
2023-08-08T11:15:58.860Z,3.85
2023-08-08T11:19:01.399Z,2.17
2023-08-08T11:22:11.391Z,2.40
2023-08-08T11:25:16.125Z,2.20
2023-08-08T11:28:18.926Z,2.03
2023-08-08T11:31:22.913Z,2.10
2023-08-08T11:34:25.692Z,2.17
2023-08-08T11:37:28.291Z,2.40
2023-08-08T11:40:31.639Z,2.15
2023-08-08T11:43:34.740Z,2.35
2023-08-08T11:46:45.585Z,2.10
2023-08-08T11:49:48.151Z,2.20
2023-08-08T11:52:53.767Z,1.83
2023-08-08T11:55:57.012Z,2.40
2023-08-08T11:59:01.140Z,2.40
2023-08-08T12:02:03.724Z,2.17
2023-08-08T12:05:08.677Z,2.70
2023-08-08T12:08:11.568Z,2.13
2023-08-08T12:11:15.390Z,2.33
2023-08-08T12:14:19.765Z,2.15
2023-08-08T12:17:23.365Z,2.00
2023-08-08T12:20:29.232Z,2.30
2023-08-08T12:23:32.005Z,2.05
2023-08-08T12:26:34.559Z,2.13
2023-08-08T12:29:37.240Z,1.98
2023-08-08T12:32:39.839Z,2.17
2023-08-08T12:35:42.944Z,2.10
2023-08-08T12:38:47.194Z,2.10
2023-08-08T12:41:49.714Z,1.90
2023-08-08T12:44:54.834Z,3.00
2023-08-08T12:47:57.438Z,2.10
2023-08-08T12:51:00.147Z,1.88
2023-08-08T12:54:02.711Z,2.10
2023-08-08T12:57:05.297Z,2.35
2023-08-08T13:00:09.997Z,2.17
2023-08-08T13:03:13.887Z,2.90
2023-08-08T13:09:19.294Z,2.17
2023-08-08T13:12:22.403Z,2.40
2023-08-08T13:15:25.051Z,2.20
2023-08-08T13:18:27.610Z,2.30
2023-08-08T13:21:30.172Z,2.25
2023-08-08T13:24:32.783Z,2.60
2023-08-08T13:27:35.432Z,2.45
2023-08-08T13:30:38.114Z,2.60
2023-08-08T13:33:41.078Z,2.17
2023-08-08T13:36:43.820Z,1.98
2023-08-08T13:39:46.803Z,2.70
2023-08-08T13:42:49.528Z,2.72
2023-08-08T13:45:52.293Z,1.80
2023-08-08T13:48:54.914Z,2.00
2023-08-08T13:51:57.467Z,1.80
2023-08-08T13:55:00.047Z,1.80
2023-08-08T13:58:02.596Z,2.13
2023-08-08T14:01:05.115Z,1.77
2023-08-08T14:04:07.860Z,2.00
2023-08-08T14:07:10.537Z,2.20
2023-08-08T14:10:13.183Z,2.00
2023-08-08T14:13:15.786Z,1.88
2023-08-08T14:16:18.472Z,7.90
2023-08-08T14:19:21.118Z,5.00
2023-08-08T14:22:23.801Z,2.35
2023-08-08T14:25:26.401Z,2.40
2023-08-08T14:28:29.348Z,2.10
2023-08-08T14:31:33.119Z,2.45
2023-08-08T14:34:40.510Z,2.40
2023-08-08T14:40:45.683Z,2.28
2023-08-08T14:43:48.453Z,2.60
2023-08-08T14:46:51.019Z,10.45
2023-08-08T14:49:53.607Z,2.17
2023-08-08T14:52:56.171Z,2.75
2023-08-08T14:55:58.891Z,3.05
2023-08-08T14:59:01.456Z,3.00
2023-08-08T15:02:04.530Z,2.50
2023-08-08T15:05:07.642Z,2.35
2023-08-08T15:08:11.138Z,2.65
2023-08-08T15:11:14.057Z,3.60
2023-08-08T15:14:16.685Z,3.05
2023-08-08T15:17:19.354Z,3.10
2023-08-08T15:20:22.059Z,2.28
2023-08-08T15:23:25.685Z,2.60
2023-08-08T15:26:28.380Z,2.08
2023-08-08T15:29:31.480Z,2.45
2023-08-08T15:32:34.124Z,2.22
2023-08-08T15:35:36.684Z,2.88
2023-08-08T15:38:39.291Z,2.50
2023-08-08T15:41:41.969Z,2.25
2023-08-08T15:44:44.724Z,2.20
2023-08-08T15:47:47.407Z,2.00
2023-08-08T15:50:50.171Z,2.05
2023-08-08T15:53:52.748Z,1.98
2023-08-08T15:56:55.240Z,1.92
2023-08-08T15:59:58.122Z,1.90
2023-08-08T16:03:00.888Z,2.40
2023-08-08T16:06:04.004Z,2.08
2023-08-08T16:09:06.742Z,2.08
2023-08-08T16:12:09.398Z,1.90
2023-08-08T16:15:12.400Z,2.08
2023-08-08T16:18:15.298Z,2.60
2023-08-08T16:21:17.847Z,2.90
2023-08-08T16:24:20.401Z,2.15
2023-08-08T16:27:22.943Z,2.10
2023-08-08T16:30:25.449Z,2.08
2023-08-08T16:33:28.652Z,2.00
2023-08-08T16:36:31.358Z,3.22
2023-08-08T16:39:33.893Z,2.10
2023-08-08T16:42:36.374Z,2.53
2023-08-08T16:45:39.472Z,2.70
2023-08-08T16:48:42.249Z,2.40
2023-08-08T16:51:44.941Z,2.30
2023-08-08T16:54:48.047Z,2.00
2023-08-08T16:57:50.770Z,2.10
2023-08-08T17:00:55.147Z,2.08
2023-08-08T17:03:58.294Z,2.92
2023-08-08T17:07:01.243Z,2.40
2023-08-08T17:10:04.629Z,1.80
2023-08-08T17:13:07.713Z,2.28
2023-08-08T17:16:10.811Z,2.35
2023-08-08T17:19:14.662Z,2.45
2023-08-08T17:22:17.724Z,2.55
2023-08-08T17:25:20.644Z,2.10
2023-08-08T17:28:23.409Z,2.10
2023-08-08T17:31:26.295Z,2.00
2023-08-08T17:34:29.588Z,2.20
2023-08-08T17:37:32.704Z,2.50
2023-08-08T17:40:36.116Z,2.33
2023-08-08T17:43:39.607Z,2.50
2023-08-08T17:46:42.883Z,2.63
2023-08-08T17:49:46.056Z,2.30
2023-08-08T17:52:49.359Z,2.67
2023-08-08T17:56:08.650Z,2.28
2023-08-08T17:59:12.976Z,2.13
2023-08-08T18:02:16.274Z,2.47
2023-08-08T18:05:19.657Z,2.90
2023-08-08T18:08:24.860Z,2.53
2023-08-08T18:11:28.914Z,2.65
2023-08-08T18:14:36.646Z,2.67
2023-08-08T18:17:41.519Z,3.50
2023-08-08T18:20:47.673Z,3.47
2023-08-08T18:23:53.767Z,4.05
2023-08-08T18:26:58.457Z,3.70
2023-08-08T18:30:06.633Z,3.75
2023-08-08T18:33:13.457Z,3.90
2023-08-08T18:36:19.155Z,3.60
2023-08-08T18:39:23.966Z,19.77
2023-08-08T18:42:28.765Z,8.15
2023-08-08T18:45:33.815Z,7.45
2023-08-08T18:48:38.699Z,4.72
2023-08-08T18:51:42.132Z,4.45
2023-08-08T18:54:45.248Z,4.43
2023-08-08T18:57:48.516Z,3.97
2023-08-08T19:00:53.847Z,4.22
2023-08-08T19:03:59.467Z,4.05
2023-08-08T19:07:03.527Z,4.00
2023-08-08T19:10:08.437Z,3.95
2023-08-08T19:13:17.121Z,6.38
2023-08-08T19:16:22.437Z,4.75
2023-08-08T19:19:25.840Z,4.22
2023-08-08T19:22:31.644Z,3.63
2023-08-08T19:25:34.855Z,3.70
2023-08-08T19:28:38.365Z,3.58
2023-08-08T19:31:41.535Z,3.80
2023-08-08T19:34:46.562Z,4.28
2023-08-08T19:37:49.876Z,4.57
2023-08-08T19:40:53.173Z,4.20
2023-08-08T19:43:57.746Z,5.50
2023-08-08T19:47:01.634Z,4.38
2023-08-08T19:53:08.512Z,3.67
2023-08-08T19:56:11.747Z,3.95
2023-08-08T19:59:14.460Z,4.10
2023-08-08T20:02:18.394Z,4.13
2023-08-08T20:05:21.761Z,3.90
2023-08-08T20:08:25.168Z,4.13
2023-08-08T20:11:28.323Z,4.10
2023-08-08T20:14:32.209Z,3.70
2023-08-08T20:17:35.574Z,3.95
2023-08-08T20:20:39.831Z,5.15
2023-08-08T20:26:45.503Z,4.03
2023-08-08T20:29:48.424Z,4.30
2023-08-08T20:32:51.424Z,4.63
2023-08-08T20:35:54.488Z,4.65
2023-08-08T20:38:57.551Z,4.65
2023-08-08T20:42:02.185Z,4.32
2023-08-08T20:45:06.133Z,4.68
2023-08-08T20:48:09.727Z,4.78
2023-08-08T20:51:12.806Z,3.92
2023-08-08T20:54:16.014Z,4.28
2023-08-08T20:57:18.783Z,4.18
2023-08-08T21:00:22.568Z,4.93
2023-08-08T21:03:25.356Z,4.70
2023-08-08T21:06:27.926Z,4.70
2023-08-08T21:09:30.493Z,4.93
2023-08-08T21:12:33.173Z,4.30
2023-08-08T21:15:35.737Z,3.60
2023-08-08T21:18:38.905Z,4.00
2023-08-08T21:21:41.498Z,3.95
2023-08-08T21:24:44.006Z,3.65
2023-08-08T21:27:46.483Z,3.90
2023-08-08T21:30:49.217Z,3.90
2023-08-08T21:33:51.756Z,4.20
2023-08-08T21:36:54.246Z,4.03
2023-08-08T21:39:56.822Z,4.32
2023-08-08T21:42:59.448Z,3.95
2023-08-08T21:46:03.253Z,4.10
2023-08-08T21:49:05.873Z,3.58
2023-08-08T21:52:08.418Z,4.20
2023-08-08T21:55:11.196Z,4.55
2023-08-08T21:58:13.733Z,4.03
2023-08-08T22:01:16.440Z,3.67
2023-08-08T22:04:19.296Z,3.95
2023-08-08T22:07:21.993Z,3.63
2023-08-08T22:10:24.498Z,3.63
2023-08-08T22:13:28.380Z,3.70
2023-08-08T22:16:30.840Z,3.42
2023-08-08T22:19:33.536Z,3.50
2023-08-08T22:22:36.597Z,4.03
2023-08-08T22:25:39.570Z,3.47
2023-08-08T22:28:42.169Z,3.72
2023-08-08T22:31:44.671Z,4.05
2023-08-08T22:34:47.354Z,3.85
2023-08-08T22:37:50.249Z,3.90
2023-08-08T22:40:52.981Z,4.10
2023-08-08T22:43:55.576Z,4.10
2023-08-08T22:46:58.074Z,3.65
2023-08-08T22:50:00.657Z,4.22
2023-08-08T22:53:04.541Z,3.95
2023-08-08T22:56:07.326Z,4.25
2023-08-08T22:59:09.894Z,3.78
2023-08-08T23:02:12.850Z,3.55
2023-08-08T23:05:16.480Z,3.80
2023-08-08T23:08:30.709Z,4.20
2023-08-08T23:11:33.196Z,3.88
2023-08-08T23:14:35.785Z,3.90
2023-08-08T23:17:38.340Z,3.70
2023-08-08T23:20:40.991Z,4.18
2023-08-08T23:23:43.721Z,4.43
2023-08-08T23:26:46.415Z,4.10
2023-08-08T23:29:48.983Z,4.13
2023-08-08T23:32:54.617Z,3.88
2023-08-08T23:35:57.604Z,4.55
2023-08-08T23:39:00.145Z,4.78
2023-08-08T23:42:02.640Z,5.00
2023-08-08T23:45:08.674Z,5.20
2023-08-08T23:48:11.394Z,5.15
2023-08-08T23:51:14.872Z,4.95
2023-08-08T23:54:17.474Z,4.93
2023-08-08T23:57:20.008Z,4.93
